Airport Name : Lelystad

Other Name : Lelystad

ICAO : EHLE

IATA : LEY

FAA :

Latitude : 52.460278

Longitude : 5.527222

Country : The Netherlands

Local Date and Time : 22 May 2024 23:41

 

TAF (Terminal Aerodrome Forecast)

TAF EHLE 221646Z 2218/2324 21009KT 9999 FEW025 BECMG 2302/2304 BKN014 BECMG 2306/2309 SCT025 PROB40 TEMPO 2314/2318 6000 SHRA SCT022CB BECMG 2317/2320 16003KT

 

METAR (METeorological Aerodrome Report)

EHLE 222125Z AUTO 21007KT 9999 FEW041 SCT047 16/11 Q1010

EHLE 222055Z AUTO 18007KT 9999 BKN034 BKN038 15/12 Q1010

EHLE 222025Z AUTO 19006KT 9999 NSC 15/12 Q1010

EHLE 221955Z AUTO 21005KT 9999 NSC 15/12 Q1010

EHLE 221925Z AUTO 23009KT 190V250 9999 NSC 17/11 Q1010 NOSIG

EHLE 221855Z AUTO 23009KT 9999 NSC 17/12 Q1009 NOSIG

EHLE 221825Z AUTO 24010KT 9999 BKN045 OVC049 18/12 Q1009 NOSIG

EHLE 221755Z AUTO 22008KT 190V250 9999 BKN032 BKN037 OVC042 18/13 Q1009 NOSIG